Back to top

Cody, WY weather

Yellowstone Regional Airport (AWOS), Cody, WY: 1/20/2020 03:56
Visibility10 statute milesclear sky
View 7-Day Forecast
Area Summary
Sky/CloudsSky Clear
Weather [last 24 hours]None
Pressure30.31 in.Hg (1027 hPa)
Dew Point10.9 °F (-11.7 °C)
Relative Humidity67.5 %
Temperature19.9 °F (-6.7 °C)blue thermometer
Reading TimeMinimum to Maximum Temperature
6-hr ending 1/19@22:5617.1 °F to 37 °F (-8.3 °C to 2.8 °C)
6-hr ending 1/19@16:5634 °F to 44.1 °F (1.1 °C to 6.7 °C)
6-hr ending 1/19@10:5626.1 °F to 41 °F (-3.3 °C to 5 °C)
6-hr ending 1/19@04:5623 °F to 33.1 °F (-5 °C to 0.6 °C)
24-hr ending 1/19@23:5617.1 °F to 44.1 °F (-8.3 °C to 6.7 °C)
Wind0 MPH (0 KT) green arrow pointing at 0 degrees
Wind FromNorth (000 Degrees)
Twilight Begins07:12Sunshine Yesterday
Sunrise07:44N/A
Sunset17:11
Twilight Ends17:43
RemarksFZRANO
METARKCOD 201056Z AUTO 00000KT 10SM CLR M07/M12 A3031 RMK AO2 SLP300 T10671117 FZRANO
Tags: